Time;durP1;ratioP1;P1;durP2;ratioP2;P2;SDS_P1;SDS_P2;PMS_P1;PMS_P2;Temp;Humidity;BMP_temperature;BMP_pressure;BME280_temperature;BME280_humidity;BME280_pressure;Samples;Min_cycle;Max_cycle;Signal;HPM_P1;HPM_P2
2023/05/18 00:01:55;;;;;;;8.80;1.60;;;;;;;;;;8297053;28;20033;-59
2023/05/18 00:05:56;;;;;;;7.07;1.80;;;;;;;;;;8298141;28;20017;-60
2023/05/18 00:09:56;;;;;;;9.93;1.70;;;;;;;;;;8297086;28;20032;-61
2023/05/18 00:13:56;;;;;;;4.82;1.40;;;;;;;;;;8298740;28;20025;-60
2023/05/18 00:17:57;;;;;;;6.22;1.85;;;;;;;;;;8295097;28;20199;-60
2023/05/18 00:21:57;;;;;;;4.13;1.60;;;;;;;;;;8298630;28;20036;-60
2023/05/18 00:25:58;;;;;;;4.90;1.70;;;;;;;;;;8297259;28;20049;-61
2023/05/18 00:29:58;;;;;;;8.80;1.67;;;;;;;;;;8296638;28;20024;-60
2023/05/18 00:33:59;;;;;;;6.40;1.80;;;;;;;;;;8298595;28;20158;-61
2023/05/18 00:37:59;;;;;;;7.72;1.77;;;;;;;;;;8296439;28;20310;-61
2023/05/18 00:41:59;;;;;;;9.40;2.05;;;;;;;;;;8298157;28;20557;-60
2023/05/18 00:46:00;;;;;;;6.68;1.77;;;;;;;;;;8298228;28;20029;-61
2023/05/18 00:50:00;;;;;;;10.07;2.17;;;;;;;;;;8298306;28;20029;-60
2023/05/18 00:54:02;;;;;;;5.82;1.70;;;;;;;;;;8298481;28;20037;-60
2023/05/18 00:58:04;;;;;;;8.73;1.85;;;;;;;;;;8296561;28;20725;-60
2023/05/18 01:02:04;;;;;;;6.10;1.70;;;;;;;;;;8296559;28;20025;-60
2023/05/18 01:06:05;;;;;;;7.05;1.80;;;;;;;;;;8296727;28;20132;-60
2023/05/18 01:10:06;;;;;;;7.38;2.13;;;;;;;;;;8296664;28;20026;-60
2023/05/18 01:14:10;;;;;;;6.00;1.70;;;;;;;;;;8298044;28;20028;-61
2023/05/18 01:18:20;;;;;;;5.20;1.90;;;;;;;;;;8299149;28;20970;-60
2023/05/18 01:22:21;;;;;;;8.80;1.70;;;;;;;;;;8303291;28;20151;-60
2023/05/18 01:26:28;;;;;;;4.68;1.52;;;;;;;;;;8304135;28;20045;-60
2023/05/18 01:30:28;;;;;;;4.18;2.13;;;;;;;;;;8302036;28;20045;-60
2023/05/18 01:34:28;;;;;;;5.43;1.50;;;;;;;;;;8302738;28;20481;-60
2023/05/18 01:38:29;;;;;;;8.23;1.83;;;;;;;;;;8302877;28;20065;-61
2023/05/18 01:42:30;;;;;;;7.90;1.80;;;;;;;;;;8304515;28;20025;-60
2023/05/18 01:46:44;;;;;;;5.30;1.83;;;;;;;;;;8303396;28;20042;-60
2023/05/18 01:50:46;;;;;;;5.50;1.65;;;;;;;;;;8303822;28;20111;-60
2023/05/18 01:54:49;;;;;;;5.95;1.60;;;;;;;;;;8303040;28;20014;-61
2023/05/18 01:58:50;;;;;;;4.88;1.67;;;;;;;;;;8302341;28;20029;-60
2023/05/18 02:02:50;;;;;;;5.75;1.70;;;;;;;;;;8303818;28;20148;-60
2023/05/18 02:06:52;;;;;;;6.30;1.67;;;;;;;;;;8304115;28;20095;-61
2023/05/18 02:10:53;;;;;;;6.30;1.73;;;;;;;;;;8302284;28;20025;-60
2023/05/18 02:14:54;;;;;;;3.30;1.40;;;;;;;;;;8301992;28;20627;-60
2023/05/18 02:18:54;;;;;;;7.13;1.63;;;;;;;;;;8300441;28;20029;-60
2023/05/18 02:22:55;;;;;;;4.95;1.67;;;;;;;;;;8302814;28;20037;-60
2023/05/18 02:26:55;;;;;;;7.40;1.55;;;;;;;;;;8298531;28;20542;-60
2023/05/18 02:31:03;;;;;;;5.68;1.55;;;;;;;;;;8314830;28;20929;-61
2023/05/18 02:35:07;;;;;;;5.57;1.85;;;;;;;;;;8302845;28;20105;-61
2023/05/18 02:39:10;;;;;;;3.58;1.50;;;;;;;;;;8301126;28;20029;-60
2023/05/18 02:43:10;;;;;;;3.93;1.70;;;;;;;;;;8300462;28;20061;-61
2023/05/18 02:47:10;;;;;;;7.97;1.90;;;;;;;;;;8298775;28;20048;-61
2023/05/18 02:51:11;;;;;;;3.30;1.33;;;;;;;;;;8299921;28;20037;-61
2023/05/18 02:55:12;;;;;;;2.57;1.40;;;;;;;;;;8300484;28;20397;-60
2023/05/18 02:59:13;;;;;;;4.22;1.25;;;;;;;;;;8299248;28;20299;-61
2023/05/18 03:03:14;;;;;;;4.32;1.83;;;;;;;;;;8300974;28;20040;-60
2023/05/18 03:07:14;;;;;;;4.47;1.50;;;;;;;;;;8301084;28;20156;-61
2023/05/18 03:11:14;;;;;;;7.35;1.60;;;;;;;;;;8299096;28;20891;-60
2023/05/18 03:15:15;;;;;;;6.53;2.20;;;;;;;;;;8302951;28;20057;-61
2023/05/18 03:19:15;;;;;;;5.90;1.80;;;;;;;;;;8298489;28;20425;-60
2023/05/18 03:23:15;;;;;;;5.43;1.70;;;;;;;;;;8301988;28;20030;-61
2023/05/18 03:27:17;;;;;;;6.18;1.60;;;;;;;;;;8301396;28;20044;-61
2023/05/18 03:31:17;;;;;;;5.03;1.65;;;;;;;;;;8298398;28;20049;-60
2023/05/18 03:35:17;;;;;;;7.53;1.98;;;;;;;;;;8301570;28;20925;-60
2023/05/18 03:39:17;;;;;;;4.18;1.50;;;;;;;;;;8299784;28;20045;-60
2023/05/18 03:43:17;;;;;;;8.95;2.15;;;;;;;;;;8300652;28;20033;-60
2023/05/18 03:47:18;;;;;;;4.43;1.88;;;;;;;;;;8297219;28;20745;-61
2023/05/18 03:51:18;;;;;;;6.63;1.88;;;;;;;;;;8297615;28;20048;-61
2023/05/18 03:55:20;;;;;;;4.75;1.50;;;;;;;;;;8297940;28;20024;-60
2023/05/18 03:59:20;;;;;;;4.53;1.73;;;;;;;;;;8299157;28;20893;-60
2023/05/18 04:03:23;;;;;;;7.10;1.73;;;;;;;;;;8298597;28;20569;-60
2023/05/18 04:07:23;;;;;;;6.43;1.67;;;;;;;;;;8300497;28;20046;-60
2023/05/18 04:11:24;;;;;;;1.95;1.30;;;;;;;;;;8298900;28;20079;-60
2023/05/18 04:15:25;;;;;;;4.28;1.30;;;;;;;;;;8297560;28;20038;-60
2023/05/18 04:19:25;;;;;;;5.33;1.50;;;;;;;;;;8299845;28;20021;-60
2023/05/18 04:23:25;;;;;;;4.22;1.42;;;;;;;;;;8298625;28;20287;-60
2023/05/18 04:27:25;;;;;;;6.57;1.60;;;;;;;;;;8299534;28;20033;-60
2023/05/18 04:31:26;;;;;;;4.45;1.90;;;;;;;;;;8299140;28;20296;-60
2023/05/18 04:35:26;;;;;;;9.32;1.90;;;;;;;;;;8300704;28;20095;-60
2023/05/18 04:39:26;;;;;;;4.72;1.55;;;;;;;;;;8299242;28;20049;-60
2023/05/18 04:43:27;;;;;;;5.68;2.15;;;;;;;;;;8300752;28;20032;-60
2023/05/18 04:47:28;;;;;;;4.28;1.90;;;;;;;;;;8296539;28;20120;-60
2023/05/18 04:51:29;;;;;;;6.10;2.05;;;;;;;;;;8296181;28;20020;-61
2023/05/18 04:55:29;;;;;;;5.38;1.90;;;;;;;;;;8296804;28;20128;-61
2023/05/18 04:59:29;;;;;;;2.63;1.55;;;;;;;;;;8297783;28;20459;-60
2023/05/18 05:03:30;;;;;;;4.53;1.57;;;;;;;;;;8299327;28;20099;-60
2023/05/18 05:07:30;;;;;;;4.23;2.00;;;;;;;;;;8297899;28;20302;-60
2023/05/18 05:11:30;;;;;;;4.87;1.70;;;;;;;;;;8298872;28;21021;-60
2023/05/18 05:15:31;;;;;;;9.15;2.13;;;;;;;;;;8296680;28;20354;-60
2023/05/18 05:19:31;;;;;;;3.75;1.73;;;;;;;;;;8298032;28;20025;-60
2023/05/18 05:23:31;;;;;;;5.43;1.88;;;;;;;;;;8297635;28;20033;-60
2023/05/18 05:27:31;;;;;;;3.83;1.60;;;;;;;;;;8296616;28;20119;-61
2023/05/18 05:31:33;;;;;;;6.20;1.70;;;;;;;;;;8297976;28;20119;-60
2023/05/18 05:35:33;;;;;;;6.63;1.58;;;;;;;;;;8298729;28;20790;-60
2023/05/18 05:39:33;;;;;;;7.47;2.10;;;;;;;;;;8297156;28;20021;-60
2023/05/18 05:43:33;;;;;;;5.20;1.70;;;;;;;;;;8298658;28;20145;-60
2023/05/18 05:47:34;;;;;;;9.43;2.10;;;;;;;;;;8292674;28;20038;-60
2023/05/18 05:51:34;;;;;;;6.40;2.07;;;;;;;;;;8297751;28;20026;-61
2023/05/18 05:55:39;;;;;;;5.95;1.70;;;;;;;;;;8297301;28;20272;-60
2023/05/18 05:59:40;;;;;;;5.00;1.90;;;;;;;;;;8293838;28;20037;-61
2023/05/18 06:03:41;;;;;;;8.65;1.58;;;;;;;;;;8298030;28;20050;-60
2023/05/18 06:07:42;;;;;;;6.88;1.80;;;;;;;;;;8305728;28;20084;-61
2023/05/18 06:11:42;;;;;;;6.32;1.70;;;;;;;;;;8299688;28;20029;-60
2023/05/18 06:15:42;;;;;;;4.70;1.73;;;;;;;;;;8301424;28;20033;-61
2023/05/18 06:19:42;;;;;;;4.07;1.80;;;;;;;;;;8299322;28;20028;-61
2023/05/18 06:23:43;;;;;;;5.70;1.97;;;;;;;;;;8300385;28;20028;-61
2023/05/18 06:27:44;;;;;;;5.20;1.80;;;;;;;;;;8299588;28;20307;-60
2023/05/18 06:31:45;;;;;;;5.22;2.00;;;;;;;;;;8301606;28;20124;-61
2023/05/18 06:35:45;;;;;;;7.78;2.10;;;;;;;;;;8301449;28;20078;-61
2023/05/18 06:39:45;;;;;;;4.40;1.70;;;;;;;;;;8299027;28;20068;-61
2023/05/18 06:43:45;;;;;;;5.80;1.60;;;;;;;;;;8301758;28;20370;-61
2023/05/18 06:47:45;;;;;;;5.45;1.75;;;;;;;;;;8300951;28;20120;-61
2023/05/18 06:51:46;;;;;;;6.90;1.95;;;;;;;;;;8309588;28;20025;-61
2023/05/18 06:55:46;;;;;;;7.00;1.80;;;;;;;;;;8301208;28;20734;-61
2023/05/18 06:59:52;;;;;;;6.05;1.67;;;;;;;;;;8298459;28;20021;-61
2023/05/18 07:03:52;;;;;;;7.25;2.20;;;;;;;;;;8298329;28;20374;-61
2023/05/18 07:17:26;;;;;;;8.07;2.00;;;;;;;;;;8297092;28;20466;-61
2023/05/18 07:21:26;;;;;;;4.40;1.60;;;;;;;;;;8290584;28;20049;-61
2023/05/18 07:25:26;;;;;;;6.27;2.30;;;;;;;;;;8299005;28;20059;-62
2023/05/18 07:29:27;;;;;;;4.45;1.75;;;;;;;;;;8297424;28;20072;-61
2023/05/18 07:33:27;;;;;;;5.13;1.80;;;;;;;;;;8297084;28;20048;-61
2023/05/18 07:37:28;;;;;;;6.10;2.00;;;;;;;;;;8295050;28;20013;-62
2023/05/18 07:41:30;;;;;;;8.55;2.35;;;;;;;;;;8295834;28;20040;-61
2023/05/18 07:45:30;;;;;;;6.47;2.20;;;;;;;;;;8295842;28;20029;-61
2023/05/18 07:49:30;;;;;;;5.40;1.98;;;;;;;;;;8294531;28;20147;-61
2023/05/18 07:53:31;;;;;;;5.15;1.90;;;;;;;;;;8297184;28;20760;-61
2023/05/18 07:57:33;;;;;;;6.53;1.90;;;;;;;;;;8293926;28;20024;-61
2023/05/18 08:01:34;;;;;;;7.22;2.20;;;;;;;;;;8297991;28;20035;-61
2023/05/18 08:05:34;;;;;;;6.55;2.05;;;;;;;;;;8295852;28;20021;-61
2023/05/18 08:09:34;;;;;;;5.93;2.03;;;;;;;;;;8296810;28;20025;-61
2023/05/18 08:13:34;;;;;;;7.15;1.98;;;;;;;;;;8298984;28;20020;-61
2023/05/18 08:17:34;;;;;;;6.35;1.92;;;;;;;;;;8295984;28;20079;-61
2023/05/18 08:21:35;;;;;;;7.33;2.00;;;;;;;;;;8299069;28;20017;-61
2023/05/18 08:25:35;;;;;;;7.17;2.10;;;;;;;;;;8298689;28;20320;-61
2023/05/18 08:29:35;;;;;;;8.70;2.53;;;;;;;;;;8296371;28;20061;-62
2023/05/18 08:33:36;;;;;;;5.72;2.13;;;;;;;;;;8297740;28;20037;-61
2023/05/18 08:37:36;;;;;;;4.85;1.70;;;;;;;;;;8297353;28;20183;-62
2023/05/18 08:41:43;;;;;;;8.88;2.33;;;;;;;;;;8299342;28;20407;-61
2023/05/18 08:45:43;;;;;;;7.25;2.50;;;;;;;;;;8297362;28;20029;-61
2023/05/18 08:49:45;;;;;;;7.50;2.00;;;;;;;;;;8295025;28;20360;-62
2023/05/18 08:53:50;;;;;;;6.15;2.03;;;;;;;;;;8298917;28;20599;-61
2023/05/18 08:57:54;;;;;;;4.88;2.03;;;;;;;;;;8297242;28;20021;-63
2023/05/18 09:01:55;;;;;;;5.18;2.15;;;;;;;;;;8298003;28;20033;-62
2023/05/18 09:05:57;;;;;;;6.57;2.10;;;;;;;;;;8297282;28;20127;-61
2023/05/18 09:09:57;;;;;;;6.70;2.10;;;;;;;;;;8295888;28;20025;-61
2023/05/18 09:13:58;;;;;;;5.90;2.13;;;;;;;;;;8297622;28;20785;-61
2023/05/18 09:17:58;;;;;;;8.85;2.33;;;;;;;;;;8294302;28;20400;-61
2023/05/18 09:21:58;;;;;;;8.57;2.60;;;;;;;;;;8297511;28;21229;-61
2023/05/18 09:25:59;;;;;;;9.18;2.45;;;;;;;;;;8298817;28;20040;-61
2023/05/18 09:29:59;;;;;;;7.05;2.08;;;;;;;;;;8297019;28;20025;-61
2023/05/18 09:34:00;;;;;;;10.10;2.13;;;;;;;;;;8298350;28;20033;-61
2023/05/18 09:38:02;;;;;;;6.90;2.67;;;;;;;;;;8296354;28;20017;-61
2023/05/18 09:42:02;;;;;;;7.60;1.83;;;;;;;;;;8302282;28;20029;-61
2023/05/18 09:46:06;;;;;;;10.68;2.38;;;;;;;;;;8303787;28;20194;-62
2023/05/18 09:50:07;;;;;;;5.68;2.00;;;;;;;;;;8305631;28;20041;-62
2023/05/18 09:54:09;;;;;;;4.57;1.98;;;;;;;;;;8303824;28;20078;-62
2023/05/18 09:58:09;;;;;;;7.35;2.35;;;;;;;;;;8302500;28;20067;-61
2023/05/18 10:02:11;;;;;;;7.87;2.30;;;;;;;;;;8302721;28;20029;-61
2023/05/18 10:06:12;;;;;;;8.50;2.22;;;;;;;;;;8301518;28;20024;-61
2023/05/18 10:10:12;;;;;;;8.77;2.30;;;;;;;;;;8303199;28;20769;-62
2023/05/18 10:14:12;;;;;;;6.93;2.20;;;;;;;;;;8302015;28;20033;-61
2023/05/18 10:18:15;;;;;;;6.47;2.10;;;;;;;;;;8298537;28;20145;-61
2023/05/18 10:22:16;;;;;;;7.32;2.40;;;;;;;;;;8301339;28;20025;-62
2023/05/18 10:26:18;;;;;;;8.00;2.28;;;;;;;;;;8302288;28;20063;-61
2023/05/18 10:30:18;;;;;;;5.65;2.20;;;;;;;;;;8300503;28;20029;-62
2023/05/18 10:34:20;;;;;;;6.28;2.10;;;;;;;;;;8301764;28;20021;-62
2023/05/18 10:38:22;;;;;;;9.95;2.28;;;;;;;;;;8300347;28;20968;-62
2023/05/18 10:42:24;;;;;;;7.07;2.33;;;;;;;;;;8302657;28;20025;-62
2023/05/18 10:46:25;;;;;;;6.18;1.90;;;;;;;;;;8302996;28;20037;-62
2023/05/18 10:50:25;;;;;;;7.38;2.20;;;;;;;;;;8298477;28;20148;-62
2023/05/18 10:54:26;;;;;;;6.47;2.08;;;;;;;;;;8301451;28;20013;-62
2023/05/18 10:58:28;;;;;;;7.18;2.28;;;;;;;;;;8299988;28;20107;-61
2023/05/18 11:02:28;;;;;;;5.32;2.03;;;;;;;;;;8300516;28;20128;-61
2023/05/18 11:06:29;;;;;;;6.70;2.13;;;;;;;;;;8304452;28;20052;-62
2023/05/18 11:10:33;;;;;;;5.15;2.10;;;;;;;;;;8300851;28;20022;-62
2023/05/18 11:14:34;;;;;;;6.43;2.10;;;;;;;;;;8300878;28;20105;-61
2023/05/18 11:18:35;;;;;;;7.78;2.63;;;;;;;;;;8299241;28;20437;-63
2023/05/18 11:22:47;;;;;;;5.78;2.05;;;;;;;;;;8302341;28;20036;-61
2023/05/18 11:26:56;;;;;;;10.57;2.47;;;;;;;;;;8301909;28;20764;-61
2023/05/18 11:30:56;;;;;;;7.75;2.30;;;;;;;;;;8298207;28;20041;-61
2023/05/18 11:34:57;;;;;;;4.73;1.97;;;;;;;;;;8301284;28;20021;-61
2023/05/18 11:39:05;;;;;;;5.78;2.35;;;;;;;;;;8296188;28;20036;-61
2023/05/18 11:43:05;;;;;;;7.78;2.08;;;;;;;;;;8301609;28;20028;-62
2023/05/18 11:47:10;;;;;;;5.35;2.30;;;;;;;;;;8296193;28;20067;-62
2023/05/18 11:51:10;;;;;;;6.03;2.38;;;;;;;;;;8298585;28;20127;-61
2023/05/18 11:55:12;;;;;;;4.75;2.08;;;;;;;;;;8299701;28;20091;-61
2023/05/18 11:59:13;;;;;;;7.83;2.30;;;;;;;;;;8297549;28;20148;-61
2023/05/18 12:03:15;;;;;;;7.65;2.13;;;;;;;;;;8296978;28;20064;-61
2023/05/18 12:07:17;;;;;;;7.07;2.15;;;;;;;;;;8311951;28;20123;-62
2023/05/18 12:11:18;;;;;;;6.32;2.38;;;;;;;;;;8298063;28;20021;-61
2023/05/18 12:15:21;;;;;;;12.02;2.30;;;;;;;;;;8301233;28;20025;-62
2023/05/18 12:19:22;;;;;;;9.35;2.42;;;;;;;;;;8295601;28;20404;-62
2023/05/18 12:23:33;;;;;;;9.68;2.10;;;;;;;;;;8302505;28;20031;-61
2023/05/18 12:27:38;;;;;;;5.32;2.10;;;;;;;;;;8298479;28;20032;-61
2023/05/18 12:31:39;;;;;;;4.32;1.92;;;;;;;;;;8296719;28;20167;-61
2023/05/18 12:35:41;;;;;;;8.30;2.10;;;;;;;;;;8298152;28;20553;-61
2023/05/18 12:39:41;;;;;;;5.50;2.10;;;;;;;;;;8297304;28;20021;-62
2023/05/18 12:43:41;;;;;;;7.22;1.88;;;;;;;;;;8297699;28;20979;-61
2023/05/18 12:47:41;;;;;;;5.67;2.20;;;;;;;;;;8296977;28;20045;-61
2023/05/18 12:51:42;;;;;;;4.93;2.10;;;;;;;;;;8299936;28;20505;-61
2023/05/18 12:55:42;;;;;;;4.57;1.85;;;;;;;;;;8298326;28;20267;-61
2023/05/18 12:59:49;;;;;;;5.88;2.35;;;;;;;;;;8296942;28;20101;-61
2023/05/18 13:03:53;;;;;;;6.03;2.00;;;;;;;;;;8295241;28;20041;-61
2023/05/18 13:07:54;;;;;;;7.07;2.10;;;;;;;;;;8294953;28;20036;-61
2023/05/18 13:11:59;;;;;;;5.95;1.85;;;;;;;;;;8293122;28;20026;-61
2023/05/18 13:15:59;;;;;;;7.85;2.00;;;;;;;;;;8297718;28;20036;-62
2023/05/18 13:19:59;;;;;;;6.77;2.27;;;;;;;;;;8296723;28;20017;-61
2023/05/18 13:24:00;;;;;;;3.83;1.97;;;;;;;;;;8300400;28;20307;-61
2023/05/18 13:28:01;;;;;;;5.68;1.95;;;;;;;;;;8296712;28;20178;-62
2023/05/18 13:32:01;;;;;;;5.10;2.20;;;;;;;;;;8297856;28;20041;-61
2023/05/18 13:36:01;;;;;;;6.68;2.20;;;;;;;;;;8297738;28;20203;-61
2023/05/18 13:40:01;;;;;;;5.13;2.08;;;;;;;;;;8287857;28;20040;-62
2023/05/18 13:44:02;;;;;;;6.50;2.25;;;;;;;;;;8297452;28;20028;-61
2023/05/18 13:48:05;;;;;;;9.05;2.15;;;;;;;;;;8294501;28;20144;-61
2023/05/18 13:52:06;;;;;;;5.90;2.10;;;;;;;;;;8297293;28;20027;-62
2023/05/18 13:56:06;;;;;;;8.30;1.97;;;;;;;;;;8296760;28;20158;-61
2023/05/18 14:00:13;;;;;;;6.53;2.35;;;;;;;;;;8292932;28;20025;-61
2023/05/18 14:04:13;;;;;;;5.72;2.00;;;;;;;;;;8296657;28;20040;-62
2023/05/18 14:08:13;;;;;;;4.40;1.93;;;;;;;;;;8296481;28;20036;-61
2023/05/18 14:12:14;;;;;;;6.53;1.90;;;;;;;;;;8298423;28;20120;-61
2023/05/18 14:16:14;;;;;;;5.75;2.03;;;;;;;;;;8294230;28;20481;-62
2023/05/18 14:20:14;;;;;;;6.00;1.90;;;;;;;;;;8295069;28;20079;-61
2023/05/18 14:24:14;;;;;;;4.82;2.00;;;;;;;;;;8297801;28;20060;-61
2023/05/18 14:28:16;;;;;;;6.45;1.92;;;;;;;;;;8302429;28;20112;-61
2023/05/18 14:32:17;;;;;;;5.90;2.10;;;;;;;;;;8304555;28;20103;-61
2023/05/18 14:36:17;;;;;;;4.80;1.80;;;;;;;;;;8302025;28;20118;-61
2023/05/18 14:40:17;;;;;;;7.95;1.90;;;;;;;;;;8301874;28;20028;-61
2023/05/18 14:44:17;;;;;;;5.82;1.92;;;;;;;;;;8303071;28;20064;-61
2023/05/18 14:48:17;;;;;;;4.80;2.03;;;;;;;;;;8301104;28;20903;-61
2023/05/18 14:52:18;;;;;;;6.80;2.00;;;;;;;;;;8303011;28;20044;-61
2023/05/18 14:56:18;;;;;;;5.80;2.03;;;;;;;;;;8301101;28;20028;-61
2023/05/18 15:00:18;;;;;;;4.77;2.20;;;;;;;;;;8303010;28;20409;-61
2023/05/18 15:04:20;;;;;;;5.47;4.00;;;;;;;;;;8301319;28;20029;-61
2023/05/18 15:08:21;;;;;;;7.80;2.13;;;;;;;;;;8315280;28;20040;-61
2023/05/18 15:12:22;;;;;;;5.10;1.90;;;;;;;;;;8300984;28;20033;-61
2023/05/18 15:16:22;;;;;;;6.30;1.90;;;;;;;;;;8299671;28;20372;-61
2023/05/18 15:20:23;;;;;;;6.40;2.00;;;;;;;;;;8298775;28;20084;-61
2023/05/18 15:24:25;;;;;;;6.20;2.00;;;;;;;;;;8300286;28;20048;-62
2023/05/18 15:28:25;;;;;;;6.78;1.90;;;;;;;;;;8301115;28;20457;-61
2023/05/18 15:32:25;;;;;;;5.35;1.95;;;;;;;;;;8299777;28;20049;-61
2023/05/18 15:36:25;;;;;;;5.68;1.85;;;;;;;;;;8302340;28;20489;-61
2023/05/18 15:40:25;;;;;;;6.85;2.00;;;;;;;;;;8300603;28;20120;-61
2023/05/18 15:44:26;;;;;;;5.25;2.25;;;;;;;;;;8299221;28;20254;-61
2023/05/18 15:48:28;;;;;;;5.65;1.95;;;;;;;;;;8299332;28;20044;-61
2023/05/18 15:52:28;;;;;;;7.00;2.17;;;;;;;;;;8299872;28;20033;-61
2023/05/18 15:56:28;;;;;;;4.83;1.90;;;;;;;;;;8299240;28;20029;-61
2023/05/18 16:00:30;;;;;;;5.68;1.95;;;;;;;;;;8295480;28;20029;-61
2023/05/18 16:04:31;;;;;;;6.53;1.92;;;;;;;;;;8300825;28;20065;-61
2023/05/18 16:08:31;;;;;;;6.75;1.92;;;;;;;;;;8299138;28;20068;-61
2023/05/18 16:12:31;;;;;;;4.30;1.97;;;;;;;;;;8300224;28;20021;-61
2023/05/18 16:16:31;;;;;;;8.43;2.00;;;;;;;;;;8298926;28;20818;-61
2023/05/18 16:20:32;;;;;;;4.90;1.80;;;;;;;;;;8298072;28;20094;-60
2023/05/18 16:24:32;;;;;;;7.17;1.63;;;;;;;;;;8299077;28;20045;-62
2023/05/18 16:28:32;;;;;;;7.28;1.92;;;;;;;;;;8297876;28;20271;-60
2023/05/18 16:32:32;;;;;;;4.82;1.92;;;;;;;;;;8298648;28;20701;-60
2023/05/18 16:36:33;;;;;;;5.03;1.67;;;;;;;;;;8302007;28;20025;-60
2023/05/18 16:40:33;;;;;;;6.20;2.00;;;;;;;;;;8299484;28;20021;-61
2023/05/18 16:44:34;;;;;;;5.05;1.80;;;;;;;;;;8299604;28;20025;-60
2023/05/18 16:48:35;;;;;;;7.70;2.08;;;;;;;;;;8295165;28;20043;-61
2023/05/18 16:52:35;;;;;;;4.05;1.80;;;;;;;;;;8297263;28;20056;-61
2023/05/18 16:56:35;;;;;;;4.40;1.73;;;;;;;;;;8299788;28;20036;-60
2023/05/18 17:00:35;;;;;;;6.57;2.00;;;;;;;;;;8298776;28;20116;-60
2023/05/18 17:04:36;;;;;;;6.40;2.10;;;;;;;;;;8300074;28;20126;-60
2023/05/18 17:08:36;;;;;;;7.32;2.13;;;;;;;;;;8296311;28;20128;-60
2023/05/18 17:12:37;;;;;;;6.88;2.13;;;;;;;;;;8298046;28;20525;-60
2023/05/18 17:16:39;;;;;;;4.90;1.92;;;;;;;;;;8298206;28;20029;-60
2023/05/18 17:20:39;;;;;;;4.65;1.98;;;;;;;;;;8299096;28;20021;-60
2023/05/18 17:24:40;;;;;;;4.72;2.15;;;;;;;;;;8300145;28;20029;-60
2023/05/18 17:28:40;;;;;;;4.85;1.80;;;;;;;;;;8296747;28;20135;-61
2023/05/18 17:32:40;;;;;;;12.40;2.20;;;;;;;;;;8295957;28;20043;-60
2023/05/18 17:36:41;;;;;;;5.13;2.10;;;;;;;;;;8298239;28;20022;-61
2023/05/18 17:40:41;;;;;;;3.28;1.85;;;;;;;;;;8297945;28;20025;-61
2023/05/18 17:44:42;;;;;;;5.20;2.25;;;;;;;;;;8300016;28;20108;-60
2023/05/18 17:48:42;;;;;;;4.65;1.90;;;;;;;;;;8296208;28;20243;-60
2023/05/18 17:52:42;;;;;;;6.70;1.98;;;;;;;;;;8297636;28;20533;-60
2023/05/18 17:56:42;;;;;;;6.67;2.30;;;;;;;;;;8297416;28;20033;-60
2023/05/18 18:00:42;;;;;;;6.35;1.85;;;;;;;;;;8300489;28;20040;-60
2023/05/18 18:04:43;;;;;;;6.90;1.90;;;;;;;;;;8302861;28;20017;-60
2023/05/18 18:08:43;;;;;;;3.55;2.03;;;;;;;;;;8301057;28;20083;-60
2023/05/18 18:12:43;;;;;;;6.40;1.80;;;;;;;;;;8301867;28;20029;-60
2023/05/18 18:16:44;;;;;;;8.35;2.35;;;;;;;;;;8302397;28;20033;-60
2023/05/18 18:20:44;;;;;;;7.75;2.33;;;;;;;;;;8299823;28;20818;-60
2023/05/18 18:24:44;;;;;;;8.33;2.00;;;;;;;;;;8302561;28;20044;-60
2023/05/18 18:28:44;;;;;;;4.20;1.85;;;;;;;;;;8302383;28;20267;-60
2023/05/18 18:32:44;;;;;;;5.82;2.00;;;;;;;;;;8301297;28;20048;-60
2023/05/18 18:36:46;;;;;;;6.00;2.00;;;;;;;;;;8301884;28;20032;-60
2023/05/18 18:40:46;;;;;;;3.25;1.80;;;;;;;;;;8299786;28;20031;-60
2023/05/18 18:44:47;;;;;;;6.90;2.00;;;;;;;;;;8292677;28;20109;-60
2023/05/18 18:48:47;;;;;;;4.97;2.22;;;;;;;;;;8289081;28;20036;-60
2023/05/18 18:52:47;;;;;;;8.90;2.47;;;;;;;;;;8284895;28;21573;-61
2023/05/18 18:56:47;;;;;;;5.88;1.80;;;;;;;;;;8291173;28;21048;-60
2023/05/18 19:00:47;;;;;;;5.40;2.23;;;;;;;;;;8288341;28;20099;-60
2023/05/18 19:04:48;;;;;;;5.22;2.03;;;;;;;;;;8289908;28;20651;-60
2023/05/18 19:08:50;;;;;;;7.07;1.83;;;;;;;;;;8290232;28;20504;-60
2023/05/18 19:12:51;;;;;;;4.30;2.05;;;;;;;;;;8290879;28;20036;-61
2023/05/18 19:16:52;;;;;;;5.10;2.20;;;;;;;;;;8291261;28;20033;-60
2023/05/18 19:20:53;;;;;;;5.85;2.10;;;;;;;;;;8289291;28;20117;-60
2023/05/18 19:24:53;;;;;;;5.65;2.75;;;;;;;;;;8289181;28;20541;-60
2023/05/18 19:28:53;;;;;;;6.22;2.97;;;;;;;;;;8287639;28;20025;-60
2023/05/18 19:32:53;;;;;;;7.05;2.53;;;;;;;;;;8288985;28;20538;-60
2023/05/18 19:36:53;;;;;;;4.93;1.98;;;;;;;;;;8291800;28;20558;-60
2023/05/18 19:40:54;;;;;;;9.73;2.53;;;;;;;;;;8290081;28;20549;-60
2023/05/18 19:44:54;;;;;;;5.38;2.17;;;;;;;;;;8293780;28;20016;-60
2023/05/18 19:48:54;;;;;;;9.10;1.83;;;;;;;;;;8289619;28;20041;-60
2023/05/18 19:52:54;;;;;;;5.07;2.22;;;;;;;;;;8294613;28;20160;-60
2023/05/18 19:56:55;;;;;;;4.20;1.67;;;;;;;;;;8295001;28;20029;-60
2023/05/18 20:00:56;;;;;;;5.65;2.28;;;;;;;;;;8290858;28;20426;-60
2023/05/18 20:04:56;;;;;;;5.50;1.92;;;;;;;;;;8293845;28;20950;-59
2023/05/18 20:08:56;;;;;;;7.00;2.22;;;;;;;;;;8293060;28;20413;-59
2023/05/18 20:12:57;;;;;;;5.43;1.85;;;;;;;;;;8293814;28;20111;-59
2023/05/18 20:16:57;;;;;;;8.20;2.60;;;;;;;;;;8293528;28;20048;-59
2023/05/18 20:20:57;;;;;;;7.75;2.50;;;;;;;;;;8292794;28;20288;-60
2023/05/18 20:25:00;;;;;;;6.95;1.90;;;;;;;;;;8301188;28;20446;-59
2023/05/18 20:29:00;;;;;;;6.05;2.10;;;;;;;;;;8297507;28;20128;-60
2023/05/18 20:33:02;;;;;;;4.60;1.58;;;;;;;;;;8293033;28;20568;-59
2023/05/18 20:37:03;;;;;;;5.63;1.75;;;;;;;;;;8300385;28;20707;-59
2023/05/18 20:41:03;;;;;;;6.20;1.80;;;;;;;;;;8299585;28;20536;-60
2023/05/18 20:45:04;;;;;;;5.50;1.83;;;;;;;;;;8296451;28;20033;-60
2023/05/18 20:49:04;;;;;;;4.60;1.50;;;;;;;;;;8295123;28;20021;-59
2023/05/18 20:53:04;;;;;;;3.92;1.70;;;;;;;;;;8297858;28;20029;-59
2023/05/18 20:57:06;;;;;;;5.40;1.70;;;;;;;;;;8297975;28;20502;-60
2023/05/18 21:01:07;;;;;;;7.93;1.75;;;;;;;;;;8296249;28;20033;-61
2023/05/18 21:05:07;;;;;;;4.07;1.67;;;;;;;;;;8299289;28;20030;-60
2023/05/18 21:09:07;;;;;;;4.30;1.45;;;;;;;;;;8296996;28;20032;-59
2023/05/18 21:13:08;;;;;;;3.17;1.40;;;;;;;;;;8296310;28;20024;-61
2023/05/18 21:17:08;;;;;;;7.68;1.70;;;;;;;;;;8293607;28;20095;-60
2023/05/18 21:21:08;;;;;;;4.50;1.70;;;;;;;;;;8293170;28;20090;-59
2023/05/18 21:25:08;;;;;;;5.97;1.92;;;;;;;;;;8294071;28;20116;-60
2023/05/18 21:29:09;;;;;;;5.63;2.13;;;;;;;;;;8294333;28;20846;-59
2023/05/18 21:33:09;;;;;;;7.60;1.73;;;;;;;;;;8294891;28;20553;-60
2023/05/18 21:37:09;;;;;;;6.07;1.90;;;;;;;;;;8302519;28;20038;-59
2023/05/18 21:41:10;;;;;;;5.70;1.60;;;;;;;;;;8302108;28;20288;-60
2023/05/18 21:45:11;;;;;;;5.78;1.98;;;;;;;;;;8305976;28;20346;-60
2023/05/18 21:49:11;;;;;;;4.18;1.58;;;;;;;;;;8300352;28;20925;-61
2023/05/18 21:53:11;;;;;;;4.32;1.50;;;;;;;;;;8305046;28;20128;-59
2023/05/18 21:57:11;;;;;;;5.43;1.50;;;;;;;;;;8303479;28;20036;-60
2023/05/18 22:01:12;;;;;;;7.82;1.70;;;;;;;;;;8304642;28;20971;-60
2023/05/18 22:05:12;;;;;;;8.68;1.70;;;;;;;;;;8304832;28;20106;-59
2023/05/18 22:09:12;;;;;;;3.60;1.67;;;;;;;;;;8303347;28;20029;-59
2023/05/18 22:13:12;;;;;;;5.13;1.75;;;;;;;;;;8304523;28;20049;-59
2023/05/18 22:17:12;;;;;;;4.03;1.30;;;;;;;;;;8303628;28;20044;-59
2023/05/18 22:21:13;;;;;;;5.55;1.40;;;;;;;;;;8303812;28;20029;-60
2023/05/18 22:25:13;;;;;;;4.85;1.50;;;;;;;;;;8303847;28;20108;-60
2023/05/18 22:29:13;;;;;;;3.95;1.33;;;;;;;;;;8302872;28;20741;-60
2023/05/18 22:33:13;;;;;;;5.03;1.53;;;;;;;;;;8304825;28;20572;-60
2023/05/18 22:37:14;;;;;;;2.78;1.50;;;;;;;;;;8302449;28;21213;-60
2023/05/18 22:41:15;;;;;;;6.32;1.70;;;;;;;;;;8305118;28;20028;-61
2023/05/18 22:45:15;;;;;;;3.58;1.50;;;;;;;;;;8298923;28;20028;-60
2023/05/18 22:49:16;;;;;;;3.65;1.42;;;;;;;;;;8304608;28;20048;-60
2023/05/18 22:53:16;;;;;;;7.63;1.80;;;;;;;;;;8318646;28;20632;-60
2023/05/18 22:57:16;;;;;;;4.60;1.50;;;;;;;;;;8302902;28;20082;-60
2023/05/18 23:01:16;;;;;;;5.15;2.08;;;;;;;;;;8303569;28;20029;-60
2023/05/18 23:05:17;;;;;;;4.00;1.45;;;;;;;;;;8302719;28;20025;-60
2023/05/18 23:09:17;;;;;;;8.20;1.70;;;;;;;;;;8302883;28;20058;-60
2023/05/18 23:13:18;;;;;;;6.38;1.77;;;;;;;;;;8302605;28;20044;-59
2023/05/18 23:17:21;;;;;;;5.35;1.65;;;;;;;;;;8301730;28;20446;-60
2023/05/18 23:21:21;;;;;;;3.97;1.52;;;;;;;;;;8301848;28;20067;-59
2023/05/18 23:25:22;;;;;;;4.25;1.48;;;;;;;;;;8298925;28;20083;-60
2023/05/18 23:29:22;;;;;;;4.32;1.65;;;;;;;;;;8301554;28;20035;-60
2023/05/18 23:33:22;;;;;;;4.38;1.52;;;;;;;;;;8302913;28;20149;-60
2023/05/18 23:37:23;;;;;;;3.67;1.60;;;;;;;;;;8300329;28;20362;-59
2023/05/18 23:41:25;;;;;;;3.70;1.60;;;;;;;;;;8300796;28;20390;-59
2023/05/18 23:45:26;;;;;;;4.22;1.40;;;;;;;;;;8302670;28;20033;-60
2023/05/18 23:49:26;;;;;;;3.58;1.55;;;;;;;;;;8299389;28;20029;-59
2023/05/18 23:53:28;;;;;;;2.65;1.30;;;;;;;;;;8302443;28;20021;-60
2023/05/18 23:57:28;;;;;;;5.07;1.67;;;;;;;;;;8299233;28;20520;-59
